Time;durP1;ratioP1;P1;durP2;ratioP2;P2;SDS_P1;SDS_P2;PMS_P1;PMS_P2;Temp;Humidity;BMP_temperature;BMP_pressure;BME280_temperature;BME280_humidity;BME280_pressure;Samples;Min_cycle;Max_cycle;Signal;HPM_P1;HPM_P2
2022/06/02 00:01:53;;;;;;;0.67;0.67;;;;;;;13.68;51.33;99055.16;5092749;28;43031;-79
2022/06/02 00:04:27;;;;;;;0.70;0.70;;;;;;;13.63;51.06;99065.25;5076399;28;41773;-81
2022/06/02 00:07:02;;;;;;;0.90;0.90;;;;;;;13.58;51.14;99062.09;5091126;28;39734;-80
2022/06/02 00:09:50;;;;;;;1.43;0.60;;;;;;;13.54;51.29;99063.28;5092685;28;41643;-78
2022/06/02 00:12:25;;;;;;;0.80;0.80;;;;;;;13.45;51.42;99063.94;5091593;28;43762;-80
2022/06/02 00:15:01;;;;;;;0.73;0.73;;;;;;;13.44;51.47;99064.88;5091054;28;43508;-78
2022/06/02 00:17:38;;;;;;;1.10;1.00;;;;;;;13.37;51.30;99067.13;5092827;28;39999;-78
2022/06/02 00:20:10;;;;;;;0.80;0.70;;;;;;;13.34;51.57;99074.47;5093379;28;40595;-74
2022/06/02 00:22:46;;;;;;;1.33;0.93;;;;;;;13.27;51.55;99085.53;5091237;28;43878;-78
2022/06/02 00:25:21;;;;;;;0.73;0.70;;;;;;;13.22;51.87;99081.50;5091008;28;43010;-80
2022/06/02 00:27:53;;;;;;;1.13;0.77;;;;;;;13.15;51.70;99083.72;5091568;28;40846;-83
2022/06/02 00:30:23;;;;;;;0.73;0.73;;;;;;;13.03;51.72;99067.75;5092704;28;40830;-84
2022/06/02 00:33:22;;;;;;;1.70;0.93;;;;;;;13.00;52.43;99075.91;5092499;28;43827;-82
2022/06/02 00:35:54;;;;;;;1.17;1.17;;;;;;;12.85;52.17;99060.09;5075791;28;43141;-75
2022/06/02 00:38:26;;;;;;;0.97;0.87;;;;;;;12.83;52.53;99072.63;5075749;28;38981;-81
2022/06/02 00:40:54;;;;;;;1.13;0.93;;;;;;;12.76;52.72;99073.13;5075467;28;40649;-77
2022/06/02 00:43:51;;;;;;;0.80;0.80;;;;;;;12.66;52.91;99070.25;5092436;28;42877;-76
2022/06/02 00:46:24;;;;;;;0.97;0.67;;;;;;;12.53;53.05;99072.03;5089509;28;43278;-77
2022/06/02 00:49:08;;;;;;;1.10;1.00;;;;;;;12.49;53.54;99070.53;5092558;28;39453;-78
2022/06/02 00:51:47;;;;;;;1.47;0.70;;;;;;;12.42;53.72;99071.91;5091876;28;42602;-80
2022/06/02 00:57:32;;;;;;;0.70;0.70;;;;;;;12.27;53.36;99078.22;5090238;28;42255;-80
2022/06/02 01:00:12;;;;;;;1.00;0.90;;;;;;;12.17;53.77;99073.53;5092401;28;41460;-82
2022/06/02 01:02:46;;;;;;;0.87;0.87;;;;;;;12.07;54.88;99060.97;5091943;28;40839;-77
2022/06/02 01:05:18;;;;;;;0.80;0.80;;;;;;;12.04;55.46;99061.16;5090391;28;42729;-80
2022/06/02 01:07:56;;;;;;;0.80;0.80;;;;;;;11.97;55.33;99066.03;5091337;28;43483;-80
2022/06/02 01:10:55;;;;;;;0.80;0.80;;;;;;;11.90;55.09;99055.88;5092098;28;41232;-76
2022/06/02 01:13:40;;;;;;;1.07;0.97;;;;;;;11.85;56.33;99057.06;5091555;28;41569;-79
2022/06/02 01:16:15;;;;;;;1.13;0.90;;;;;;;11.79;56.71;99061.88;5089995;28;44024;-79
2022/06/02 01:18:56;;;;;;;0.87;0.87;;;;;;;11.61;56.98;99044.47;5092027;28;42544;-76
2022/06/02 01:21:57;;;;;;;1.47;1.00;;;;;;;11.62;57.72;99065.56;5089163;28;40106;-76
2022/06/02 01:24:44;;;;;;;1.00;0.90;;;;;;;11.56;57.35;99067.78;5085040;28;41341;-78
2022/06/02 01:27:31;;;;;;;0.93;0.93;;;;;;;11.51;57.39;99081.31;5091232;28;44558;-79
2022/06/02 01:30:37;;;;;;;0.80;0.80;;;;;;;11.45;56.87;99079.91;5074720;28;41480;-76
2022/06/02 01:33:10;;;;;;;1.50;1.10;;;;;;;11.41;56.76;99077.53;5091703;28;40696;-81
2022/06/02 01:35:51;;;;;;;1.20;1.10;;;;;;;11.29;56.64;99078.28;5088651;28;42301;-79
2022/06/02 01:38:25;;;;;;;1.00;0.90;;;;;;;11.30;56.57;99090.59;5091906;28;41553;-76
2022/06/02 01:41:04;;;;;;;0.80;0.80;;;;;;;11.24;57.07;99091.00;5091813;28;42596;-77
2022/06/02 01:43:45;;;;;;;1.90;0.90;;;;;;;11.10;57.69;99071.50;5074938;28;39249;-82
2022/06/02 01:46:36;;;;;;;1.70;1.20;;;;;;;11.13;57.33;99089.84;5091473;28;40587;-80
2022/06/02 01:49:16;;;;;;;0.87;0.87;;;;;;;11.08;57.56;99102.53;5090663;28;41719;-77
2022/06/02 01:51:54;;;;;;;1.50;1.10;;;;;;;11.02;57.56;99102.88;5088617;28;43195;-78
2022/06/02 01:54:37;;;;;;;1.13;1.07;;;;;;;10.97;57.56;99110.28;5088505;28;40170;-74
2022/06/02 01:57:13;;;;;;;1.07;0.97;;;;;;;10.92;57.52;99106.19;5088937;28;41697;-81
2022/06/02 01:59:53;;;;;;;1.90;0.90;;;;;;;10.80;57.60;99097.19;5088586;28;43783;-78
2022/06/02 02:02:29;;;;;;;0.97;0.87;;;;;;;10.82;57.59;99105.88;5089756;28;43247;-80
2022/06/02 02:05:17;;;;;;;0.90;0.90;;;;;;;10.78;57.26;99113.16;5091536;28;41012;-77
2022/06/02 02:08:01;;;;;;;0.93;0.90;;;;;;;10.72;57.56;99120.63;5089404;28;41667;-79
2022/06/02 02:10:39;;;;;;;1.53;0.93;;;;;;;10.67;57.23;99112.09;5093532;28;20685;-81
2022/06/02 02:13:20;;;;;;;1.17;0.90;;;;;;;10.66;57.39;99108.59;5090487;28;41975;-78
2022/06/02 02:15:56;;;;;;;1.03;1.03;;;;;;;10.64;57.28;99120.19;5088306;28;39966;-76
2022/06/02 02:18:41;;;;;;;0.60;0.60;;;;;;;10.60;57.22;99122.19;5090611;28;42561;-80
2022/06/02 02:21:22;;;;;;;1.27;0.90;;;;;;;10.58;57.28;99128.53;5089222;28;42493;-78
2022/06/02 02:24:00;;;;;;;1.00;0.90;;;;;;;10.54;57.40;99127.84;5090791;28;41585;-78
2022/06/02 02:26:34;;;;;;;0.77;0.77;;;;;;;10.51;57.50;99129.84;5089403;28;40085;-82
2022/06/02 02:29:11;;;;;;;1.17;1.07;;;;;;;10.46;57.52;99123.94;5090987;28;42469;-78
2022/06/02 02:31:49;;;;;;;0.90;0.90;;;;;;;10.30;58.17;99106.28;5090393;28;41850;-76
2022/06/02 02:34:30;;;;;;;1.13;1.03;;;;;;;10.37;58.14;99125.34;5089220;28;42781;-76
2022/06/02 02:37:04;;;;;;;0.90;0.90;;;;;;;10.31;58.28;99131.81;5074172;28;40607;-77
2022/06/02 02:39:43;;;;;;;0.70;0.70;;;;;;;10.27;58.43;99124.13;5088178;28;43177;-75
2022/06/02 02:42:18;;;;;;;0.80;0.80;;;;;;;9.77;58.38;99066.13;5089571;28;42736;-78
2022/06/02 02:44:54;;;;;;;0.90;0.80;;;;;;;10.19;58.45;99143.09;5091049;28;42274;-80
2022/06/02 02:47:33;;;;;;;1.03;0.87;;;;;;;10.15;58.57;99143.31;5088854;28;40237;-78
2022/06/02 02:50:08;;;;;;;0.83;0.83;;;;;;;10.10;58.91;99143.59;5074141;28;40764;-82
2022/06/02 02:52:49;;;;;;;1.10;1.00;;;;;;;10.05;59.08;99142.97;5090047;28;42543;-80
2022/06/02 02:55:20;;;;;;;1.30;1.20;;;;;;;9.99;58.96;99144.19;5087497;28;42099;-75
2022/06/02 02:57:56;;;;;;;1.87;1.00;;;;;;;9.94;59.22;99135.63;5090430;28;41577;-79
2022/06/02 03:00:33;;;;;;;1.20;1.13;;;;;;;9.90;59.29;99141.19;5090563;28;40647;-77
2022/06/02 03:03:09;;;;;;;1.00;0.90;;;;;;;9.86;59.10;99139.66;5092104;28;43067;-75
2022/06/02 03:06:03;;;;;;;1.20;1.10;;;;;;;9.82;59.08;99143.41;5077549;28;41541;-81
2022/06/02 03:08:39;;;;;;;1.13;1.07;;;;;;;9.78;59.00;99148.00;5076375;28;41118;-79
2022/06/02 03:11:24;;;;;;;1.37;1.00;;;;;;;9.71;59.34;99149.28;5091190;28;41625;-80
2022/06/02 03:14:03;;;;;;;1.33;1.10;;;;;;;9.61;59.29;99146.28;5095184;28;44639;-78
2022/06/02 03:16:35;;;;;;;1.17;1.07;;;;;;;9.67;59.27;99159.16;5094183;28;41088;-80
2022/06/02 03:19:14;;;;;;;1.20;1.10;;;;;;;9.66;59.38;99156.59;5077299;28;38989;-79
2022/06/02 03:21:53;;;;;;;1.03;1.00;;;;;;;9.59;59.32;99158.72;5091078;28;42350;-79
2022/06/02 03:24:46;;;;;;;1.40;1.10;;;;;;;9.62;59.48;99174.44;5077078;28;42781;-82
2022/06/02 03:27:36;;;;;;;0.83;0.83;;;;;;;9.58;59.40;99167.59;5089553;28;42301;-78
2022/06/02 03:30:16;;;;;;;1.30;1.20;;;;;;;9.58;59.44;99167.59;5076856;28;39560;-80
2022/06/02 03:33:05;;;;;;;1.10;0.97;;;;;;;9.61;59.94;99172.72;5076381;28;41893;-77
2022/06/02 03:35:46;;;;;;;1.27;0.93;;;;;;;9.61;59.62;99180.66;5090628;28;43425;-83
2022/06/02 03:38:30;;;;;;;1.10;1.00;;;;;;;9.60;59.57;99186.88;5092838;28;42393;-77
2022/06/02 03:41:15;;;;;;;2.13;1.13;;;;;;;9.61;59.88;99188.59;5093854;28;40432;-76
2022/06/02 03:43:53;;;;;;;0.83;0.83;;;;;;;9.62;59.64;99192.94;5076204;28;41733;-76
2022/06/02 03:46:33;;;;;;;1.17;0.80;;;;;;;9.64;59.68;99193.69;5091596;28;42883;-78
2022/06/02 03:49:22;;;;;;;1.70;1.10;;;;;;;9.61;59.69;99182.44;5091410;28;42453;-77
2022/06/02 03:51:59;;;;;;;0.87;0.87;;;;;;;9.67;59.48;99184.75;5093532;28;40614;-84
2022/06/02 03:54:46;;;;;;;0.90;0.90;;;;;;;9.71;59.76;99195.09;5090481;28;41901;-76
2022/06/02 03:57:39;;;;;;;1.30;1.20;;;;;;;9.75;59.70;99190.50;5090964;28;43603;-78
2022/06/02 04:00:14;;;;;;;2.10;1.50;;;;;;;9.80;59.62;99198.16;5080727;28;40859;-73
2022/06/02 04:02:51;;;;;;;0.90;0.80;;;;;;;9.85;59.56;99201.44;5087449;28;39309;-73
2022/06/02 04:05:46;;;;;;;1.10;1.00;;;;;;;9.91;60.00;99196.66;5104578;28;42154;-74
2022/06/02 04:08:36;;;;;;;1.07;1.00;;;;;;;9.98;60.27;99205.13;5103776;28;41577;-74
2022/06/02 04:11:19;;;;;;;2.40;1.17;;;;;;;9.99;59.87;99198.91;5102961;28;42842;-74
2022/06/02 04:13:59;;;;;;;1.10;1.00;;;;;;;10.14;59.71;99210.44;5084447;28;40112;-81
2022/06/02 04:16:53;;;;;;;1.47;1.00;;;;;;;10.21;59.66;99212.69;5093075;28;41994;-81
2022/06/02 04:22:42;;;;;;;1.00;1.00;;;;;;;10.41;60.14;99211.56;5093435;28;43324;-83
2022/06/02 04:25:26;;;;;;;1.43;1.33;;;;;;;10.51;60.75;99209.28;5092446;28;40188;-76
2022/06/02 04:28:06;;;;;;;1.53;1.17;;;;;;;10.59;61.26;99215.84;5092711;28;42689;-78
2022/06/02 04:30:42;;;;;;;1.50;1.30;;;;;;;10.62;61.16;99201.56;5090901;28;42637;-79
2022/06/02 04:33:15;;;;;;;1.50;1.40;;;;;;;10.74;61.51;99214.13;5075484;28;42687;-76
2022/06/02 04:35:56;;;;;;;2.43;1.50;;;;;;;10.83;60.91;99213.56;5090961;28;39930;-80
2022/06/02 04:38:31;;;;;;;2.67;1.33;;;;;;;10.93;61.59;99206.78;5092136;28;42790;-78
2022/06/02 04:41:11;;;;;;;1.50;1.40;;;;;;;11.02;61.28;99211.53;5090668;28;42733;-75
2022/06/02 04:43:50;;;;;;;1.30;1.20;;;;;;;11.13;61.06;99222.38;5093500;28;42181;-79
2022/06/02 04:46:35;;;;;;;2.87;1.40;;;;;;;11.20;61.15;99214.06;5092742;28;40737;-78
2022/06/02 04:49:11;;;;;;;2.27;1.20;;;;;;;11.32;60.89;99216.00;5089691;28;41720;-80
2022/06/02 04:51:47;;;;;;;1.30;1.20;;;;;;;11.43;61.12;99211.75;5092321;28;41927;-81
2022/06/02 04:54:26;;;;;;;2.70;1.40;;;;;;;11.44;61.03;99207.28;5089816;28;42287;-78
2022/06/02 04:56:59;;;;;;;1.40;1.30;;;;;;;11.65;60.58;99224.56;5092196;28;39106;-80
2022/06/02 04:59:35;;;;;;;2.20;1.50;;;;;;;11.76;60.28;99222.13;5075518;28;43622;-83
2022/06/02 05:02:15;;;;;;;1.40;1.10;;;;;;;11.86;60.34;99215.31;5092216;28;41444;-79
2022/06/02 05:04:51;;;;;;;1.47;1.37;;;;;;;12.01;60.03;99223.25;5092225;28;42265;-78
2022/06/02 05:07:26;;;;;;;1.60;1.20;;;;;;;12.13;59.58;99230.44;5074833;28;40190;-78
2022/06/02 05:10:07;;;;;;;1.37;1.27;;;;;;;12.27;59.90;99221.63;5092183;28;41934;-76
2022/06/02 05:12:51;;;;;;;1.30;1.20;;;;;;;12.25;59.86;99203.13;5091845;28;41495;-85
2022/06/02 05:15:32;;;;;;;1.53;1.40;;;;;;;12.50;59.68;99229.81;5089111;28;42796;-78
2022/06/02 05:18:25;;;;;;;1.83;1.57;;;;;;;12.65;59.92;99224.47;5092016;28;39785;-82
2022/06/02 05:21:20;;;;;;;2.93;1.57;;;;;;;12.77;59.10;99235.16;5075413;28;42404;-81
2022/06/02 05:24:38;;;;;;;1.47;1.37;;;;;;;12.91;59.25;99231.59;5091184;28;44664;-76
2022/06/02 05:27:40;;;;;;;1.97;1.30;;;;;;;13.10;58.89;99250.72;5012748;28;42033;-79
2022/06/02 05:30:22;;;;;;;1.40;1.30;;;;;;;13.23;58.88;99254.25;5014379;28;38884;-79
2022/06/02 05:33:21;;;;;;;1.60;1.50;;;;;;;13.39;58.47;99255.91;5083344;28;42035;-78
2022/06/02 05:36:06;;;;;;;1.40;1.30;;;;;;;13.51;58.62;99255.06;5091871;28;42740;-76
2022/06/02 05:38:50;;;;;;;1.60;1.50;;;;;;;13.69;58.03;99259.13;5090962;28;42314;-76
2022/06/02 05:41:36;;;;;;;1.40;1.30;;;;;;;13.85;57.77;99264.22;5092902;28;41908;-76
2022/06/02 05:44:13;;;;;;;1.57;1.47;;;;;;;13.99;57.33;99270.31;5093170;28;42665;-77
2022/06/02 05:46:59;;;;;;;1.60;1.50;;;;;;;14.13;56.88;99273.81;5088285;28;43690;-76
2022/06/02 05:49:35;;;;;;;1.87;1.50;;;;;;;14.27;56.54;99281.69;5089570;28;42598;-79
2022/06/02 05:52:10;;;;;;;1.50;1.40;;;;;;;14.40;56.37;99279.91;5075324;28;39470;-80
2022/06/02 05:54:47;;;;;;;2.30;2.00;;;;;;;14.53;56.30;99278.06;5088356;28;41586;-82
2022/06/02 05:57:34;;;;;;;1.40;1.30;;;;;;;14.69;55.94;99269.81;5088840;28;44035;-83
2022/06/02 06:00:14;;;;;;;2.13;1.70;;;;;;;14.83;55.73;99279.47;5074656;28;42865;-79
2022/06/02 06:03:23;;;;;;;1.50;1.40;;;;;;;14.98;55.52;99289.00;5090731;28;39523;-79
2022/06/02 06:05:58;;;;;;;1.57;1.47;;;;;;;15.14;55.28;99294.91;5092256;28;41711;-80
2022/06/02 06:08:47;;;;;;;1.40;1.30;;;;;;;15.26;55.18;99285.97;5090995;28;43529;-83
2022/06/02 06:11:24;;;;;;;1.53;1.43;;;;;;;15.42;54.87;99283.88;5090064;28;42350;-77
2022/06/02 06:14:14;;;;;;;2.93;1.60;;;;;;;15.57;54.80;99291.72;5091316;28;40979;-81
2022/06/02 06:16:47;;;;;;;2.10;1.90;;;;;;;15.72;54.41;99293.22;5087947;28;42092;-77
2022/06/02 06:19:34;;;;;;;1.97;1.87;;;;;;;15.89;54.42;99292.78;5074393;28;41723;-81
2022/06/02 06:22:16;;;;;;;3.53;2.20;;;;;;;16.03;54.55;99289.03;5089718;28;42257;-77
2022/06/02 06:25:03;;;;;;;2.30;2.10;;;;;;;16.21;53.92;99290.25;5074506;28;40300;-77
2022/06/02 06:27:35;;;;;;;2.13;1.90;;;;;;;16.34;53.16;99284.78;5088909;28;41783;-81
2022/06/02 06:30:09;;;;;;;1.90;1.53;;;;;;;16.57;52.98;99301.69;5087556;28;43030;-77
2022/06/02 06:32:47;;;;;;;2.53;2.33;;;;;;;16.63;51.47;99294.03;5090202;28;43557;-83
2022/06/02 06:35:32;;;;;;;1.63;1.53;;;;;;;16.93;51.20;99316.63;5087501;28;41789;-80
2022/06/02 06:38:22;;;;;;;1.37;1.27;;;;;;;17.11;49.90;99325.81;5092735;28;41815;-86
2022/06/02 06:41:23;;;;;;;1.80;1.70;;;;;;;17.40;48.63;99336.81;5080663;28;42042;-83
2022/06/02 06:44:10;;;;;;;2.20;1.63;;;;;;;17.62;48.25;99331.34;5041737;28;41953;-81
2022/06/02 06:46:47;;;;;;;1.70;1.60;;;;;;;17.78;46.91;99341.69;5095384;28;40874;-84
2022/06/02 06:49:21;;;;;;;2.07;1.60;;;;;;;17.88;46.50;99347.94;5077355;28;40689;-78
2022/06/02 06:52:15;;;;;;;1.60;1.50;;;;;;;18.06;47.39;99346.38;5091082;28;43847;-77
2022/06/02 06:54:58;;;;;;;1.70;1.23;;;;;;;18.21;47.69;99354.94;5093659;28;42076;-79
2022/06/02 06:57:32;;;;;;;1.40;1.30;;;;;;;18.37;46.77;99367.88;5092226;28;39929;-78
2022/06/02 07:00:08;;;;;;;1.47;1.37;;;;;;;18.57;45.99;99372.34;5077187;28;41535;-80
2022/06/02 07:02:49;;;;;;;1.30;1.20;;;;;;;18.80;45.90;99373.91;5076770;28;43239;-78
2022/06/02 07:05:21;;;;;;;1.67;1.57;;;;;;;19.05;45.51;99375.25;5092062;28;42239;-80
2022/06/02 07:07:59;;;;;;;1.57;1.47;;;;;;;19.31;44.88;99362.19;5091631;28;39975;-75
2022/06/02 07:10:36;;;;;;;1.40;1.30;;;;;;;19.64;43.96;99351.09;5092365;28;43020;-76
2022/06/02 07:13:15;;;;;;;1.90;1.23;;;;;;;19.87;42.78;99375.00;5093901;28;43393;-77
2022/06/02 07:15:49;;;;;;;1.13;1.13;;;;;;;19.91;42.94;99381.75;5092195;28;43310;-81
2022/06/02 07:18:26;;;;;;;1.70;1.60;;;;;;;19.66;41.50;99346.41;5094148;28;40004;-81
2022/06/02 07:21:02;;;;;;;1.33;1.23;;;;;;;20.03;40.42;99389.53;5093877;28;42090;-81
2022/06/02 07:23:44;;;;;;;1.90;1.47;;;;;;;20.23;41.36;99379.63;5093249;28;43488;-83
2022/06/02 07:26:29;;;;;;;2.03;1.63;;;;;;;20.88;39.88;99387.81;5093302;28;40657;-80
2022/06/02 07:29:07;;;;;;;1.53;1.43;;;;;;;22.28;37.59;99401.63;5091761;28;40960;-77
2022/06/02 07:32:07;;;;;;;1.37;1.27;;;;;;;23.82;34.74;99421.38;5091548;28;42966;-80
2022/06/02 07:34:55;;;;;;;1.60;1.27;;;;;;;24.97;32.49;99428.47;5094600;28;43349;-77
2022/06/02 07:37:35;;;;;;;1.47;1.37;;;;;;;26.10;30.31;99441.47;5093496;28;41594;-80
2022/06/02 07:40:29;;;;;;;1.50;1.40;;;;;;;27.34;29.09;99443.69;5077013;28;38947;-83
2022/06/02 07:43:26;;;;;;;1.40;1.30;;;;;;;28.57;28.31;99447.19;5093601;28;42511;-80
2022/06/02 07:46:12;;;;;;;1.70;1.60;;;;;;;29.28;26.12;99455.28;5093644;28;42791;-76
2022/06/02 07:48:57;;;;;;;1.77;1.67;;;;;;;29.18;25.76;99452.06;5092273;28;42029;-80
2022/06/02 07:51:36;;;;;;;1.90;1.80;;;;;;;28.42;26.03;99459.25;5090987;28;39798;-80
2022/06/02 07:54:22;;;;;;;1.73;1.50;;;;;;;27.89;27.74;99445.03;5091352;28;41493;-78
2022/06/02 07:57:04;;;;;;;1.87;1.60;;;;;;;28.32;25.34;99470.44;5093147;28;44975;-87
2022/06/02 07:59:49;;;;;;;1.87;1.77;;;;;;;29.36;23.99;99481.56;5076630;28;42213;-83
2022/06/02 08:02:35;;;;;;;1.43;1.33;;;;;;;31.34;22.52;99480.94;5075436;28;39279;-86
2022/06/02 08:05:14;;;;;;;1.90;1.80;;;;;;;33.28;20.98;99488.66;5090312;28;41700;-74
2022/06/02 08:07:49;;;;;;;1.67;1.57;;;;;;;34.88;20.70;99478.88;5092307;28;44420;-78
2022/06/02 08:10:26;;;;;;;1.50;1.40;;;;;;;35.95;19.46;99479.41;5093036;28;41564;-85
2022/06/02 08:13:03;;;;;;;1.70;1.50;;;;;;;36.08;18.27;99494.81;5092753;28;39572;-85
2022/06/02 08:15:42;;;;;;;1.47;1.40;;;;;;;36.26;17.07;99502.91;5093082;28;41629;-79
2022/06/02 08:18:30;;;;;;;1.10;1.10;;;;;;;36.73;16.74;99499.91;5093052;28;41919;-80
2022/06/02 08:21:15;;;;;;;1.20;1.20;;;;;;;37.09;17.29;99473.72;5089901;28;42334;-83
2022/06/02 08:24:01;;;;;;;1.60;1.50;;;;;;;37.10;17.89;99467.91;5092660;28;40002;-81
2022/06/02 08:26:39;;;;;;;1.43;1.33;;;;;;;36.55;17.67;99479.72;5076126;28;43456;-80
2022/06/02 08:29:21;;;;;;;1.40;1.40;;;;;;;35.57;18.00;99477.19;5076188;28;43796;-81
2022/06/02 08:32:24;;;;;;;1.10;1.10;;;;;;;34.91;19.55;99456.38;5090974;28;43013;-86
2022/06/02 08:35:04;;;;;;;1.30;1.20;;;;;;;34.79;19.00;99458.28;5089664;28;39895;-78
2022/06/02 08:37:45;;;;;;;1.80;1.70;;;;;;;34.64;19.11;99461.47;5075607;28;42145;-84
2022/06/02 08:40:47;;;;;;;1.70;1.60;;;;;;;34.47;19.96;99455.84;5092574;28;41668;-82
2022/06/02 08:43:59;;;;;;;2.00;1.90;;;;;;;34.76;19.77;99453.25;5068852;28;42999;-79
2022/06/02 08:46:49;;;;;;;1.50;1.40;;;;;;;35.26;18.21;99468.25;4998406;28;39251;-78
2022/06/02 08:49:45;;;;;;;2.23;1.90;;;;;;;35.68;18.54;99461.72;5014519;28;43717;-84
2022/06/02 08:52:55;;;;;;;2.40;2.20;;;;;;;35.42;17.89;99463.94;5085191;28;42700;-80
2022/06/02 08:55:58;;;;;;;2.60;2.40;;;;;;;34.59;19.08;99455.88;5092316;28;42508;-83
2022/06/02 08:58:52;;;;;;;1.77;1.60;;;;;;;34.07;18.50;99461.06;5074985;28;40457;-81
2022/06/02 09:01:47;;;;;;;1.80;1.70;;;;;;;33.96;20.38;99453.63;5090336;28;42722;-86
2022/06/02 09:05:01;;;;;;;1.87;1.77;;;;;;;34.49;19.36;99464.69;5090425;28;43772;-83
2022/06/02 09:07:58;;;;;;;2.07;1.97;;;;;;;34.89;18.77;99470.38;5091694;28;43016;-80
2022/06/02 09:10:54;;;;;;;1.80;1.70;;;;;;;34.27;18.33;99471.78;5091863;28;40323;-78
2022/06/02 09:14:03;;;;;;;2.10;2.00;;;;;;;33.70;19.29;99471.25;5076190;28;42716;-76
2022/06/02 09:16:42;;;;;;;1.50;1.40;;;;;;;33.97;19.12;99466.28;5078610;28;43732;-81
2022/06/02 09:19:31;;;;;;;1.60;1.50;;;;;;;34.41;19.79;99467.78;5091617;28;40952;-77
2022/06/02 09:22:28;;;;;;;2.50;1.87;;;;;;;34.54;18.92;99478.56;5091949;28;40732;-85
2022/06/02 09:25:08;;;;;;;1.97;1.87;;;;;;;34.16;20.42;99465.16;5091713;28;42848;-76
2022/06/02 09:28:11;;;;;;;2.17;2.07;;;;;;;33.95;20.45;99462.09;5091987;28;43240;-81
2022/06/02 09:30:45;;;;;;;1.70;1.60;;;;;;;34.18;19.76;99462.19;5089084;28;42476;-88
2022/06/02 09:33:37;;;;;;;1.70;1.60;;;;;;;34.43;19.24;99462.03;5092206;28;39925;-81
2022/06/02 09:36:33;;;;;;;2.20;2.10;;;;;;;34.40;20.20;99457.84;5091855;28;41684;-84
2022/06/02 09:39:17;;;;;;;1.70;1.47;;;;;;;35.00;19.46;99470.63;5074667;28;41500;-75
2022/06/02 09:42:17;;;;;;;2.03;1.70;;;;;;;35.61;19.61;99456.31;5088848;28;43008;-86
2022/06/02 09:44:59;;;;;;;1.60;1.50;;;;;;;35.67;19.59;99422.28;5092844;28;40525;-82
2022/06/02 09:47:50;;;;;;;2.03;1.93;;;;;;;36.20;17.94;99479.06;5089264;28;42764;-82
2022/06/02 09:50:34;;;;;;;2.00;1.90;;;;;;;36.02;17.94;99470.97;5089792;28;42722;-86
2022/06/02 09:53:26;;;;;;;2.07;1.97;;;;;;;36.14;18.18;99471.75;5091584;28;42643;-79
2022/06/02 09:56:14;;;;;;;1.80;1.70;;;;;;;36.66;17.66;99469.69;5091463;28;40053;-79
2022/06/02 09:58:55;;;;;;;2.30;1.93;;;;;;;36.18;18.11;99461.91;5092161;28;41922;-80
2022/06/02 10:01:38;;;;;;;2.00;1.87;;;;;;;35.43;18.44;99462.00;5074291;28;43154;-87
2022/06/02 10:04:38;;;;;;;1.70;1.60;;;;;;;34.73;20.08;99448.22;5088278;28;43336;-78
2022/06/02 10:07:27;;;;;;;2.20;2.10;;;;;;;34.16;19.79;99447.81;5090479;28;39709;-82
2022/06/02 10:10:24;;;;;;;1.63;1.53;;;;;;;33.61;19.99;99449.84;5089582;28;41884;-82
2022/06/02 10:13:23;;;;;;;2.80;2.60;;;;;;;33.61;21.04;99436.94;5054903;28;42747;-80
2022/06/02 10:16:18;;;;;;;2.00;1.90;;;;;;;33.68;20.24;99440.44;5090645;28;44298;-80
2022/06/02 10:19:07;;;;;;;1.77;1.67;;;;;;;33.42;20.93;99430.59;5091413;28;40981;-77
2022/06/02 10:21:49;;;;;;;2.00;1.90;;;;;;;33.41;20.91;99434.41;5089235;28;42564;-85
2022/06/02 10:25:00;;;;;;;1.90;1.80;;;;;;;33.30;21.35;99439.84;5091131;28;41800;-85
2022/06/02 10:28:00;;;;;;;1.40;1.33;;;;;;;33.54;20.72;99436.16;5017852;28;41440;-79
2022/06/02 10:31:01;;;;;;;2.00;1.90;;;;;;;33.76;20.97;99437.38;5087968;28;39954;-84
2022/06/02 10:33:52;;;;;;;1.50;1.40;;;;;;;33.70;21.39;99427.31;5092095;28;42780;-80
2022/06/02 10:36:40;;;;;;;1.60;1.50;;;;;;;33.56;20.79;99414.81;5088138;28;42678;-86
2022/06/02 10:39:29;;;;;;;1.67;1.57;;;;;;;33.59;21.28;99408.84;5078383;28;42491;-83
2022/06/02 10:42:13;;;;;;;2.70;1.60;;;;;;;33.51;20.33;99433.88;5074308;28;38992;-79
2022/06/02 10:45:19;;;;;;;1.83;1.73;;;;;;;33.25;20.14;99431.47;5088513;28;41735;-81
2022/06/02 10:48:21;;;;;;;2.23;1.93;;;;;;;32.90;21.60;99421.00;5090262;28;42875;-83
2022/06/02 10:51:13;;;;;;;1.43;1.33;;;;;;;32.69;21.30;99413.16;5073991;28;40947;-82
2022/06/02 10:54:27;;;;;;;1.90;1.70;;;;;;;32.81;21.61;99411.41;5090980;28;38910;-82
2022/06/02 10:57:26;;;;;;;2.03;1.60;;;;;;;32.55;22.07;99412.44;5012855;28;43032;-83
2022/06/02 11:00:11;;;;;;;1.60;1.50;;;;;;;32.43;21.72;99408.75;5089160;28;45556;-81
2022/06/02 11:03:23;;;;;;;2.50;1.50;;;;;;;32.35;22.01;99420.00;5088932;28;42351;-79
2022/06/02 11:06:21;;;;;;;1.57;1.20;;;;;;;32.38;23.09;99401.22;5081038;28;40701;-79
2022/06/02 11:09:31;;;;;;;1.80;1.70;;;;;;;32.35;21.69;99418.09;5086833;28;40901;-88
2022/06/02 11:12:38;;;;;;;1.20;1.10;;;;;;;32.14;21.15;99415.72;5091346;28;42828;-84
2022/06/02 11:15:42;;;;;;;1.47;1.00;;;;;;;32.20;23.36;99392.91;5090136;28;42506;-78
2022/06/02 11:18:49;;;;;;;2.77;1.30;;;;;;;32.39;21.79;99408.34;5073065;28;42114;-83
2022/06/02 11:21:36;;;;;;;1.30;1.20;;;;;;;32.55;22.22;99400.63;5089820;28;42767;-76
2022/06/02 11:24:27;;;;;;;1.27;1.13;;;;;;;32.35;22.08;99401.66;5076213;28;41929;-79
2022/06/02 11:27:45;;;;;;;1.10;1.10;;;;;;;32.38;21.21;99412.19;5092399;28;43079;-87
2022/06/02 11:30:34;;;;;;;1.63;1.00;;;;;;;32.25;22.44;99401.31;4999324;28;39994;-77
2022/06/02 11:33:23;;;;;;;2.23;1.20;;;;;;;32.10;22.26;99408.97;5086301;28;42469;-77
2022/06/02 11:36:25;;;;;;;0.80;0.80;;;;;;;32.04;23.31;99393.41;5076839;28;42127;-85
2022/06/02 11:39:31;;;;;;;1.20;1.20;;;;;;;32.15;22.47;99392.69;5093445;28;42332;-83
2022/06/02 11:42:15;;;;;;;1.10;1.00;;;;;;;32.38;20.27;99414.94;5062423;28;40948;-76
2022/06/02 11:45:00;;;;;;;1.87;1.00;;;;;;;32.77;21.55;99399.19;5090469;28;41939;-83
2022/06/02 11:47:52;;;;;;;1.70;0.90;;;;;;;33.18;20.73;99384.81;5093355;28;43838;-83
2022/06/02 11:50:39;;;;;;;1.30;1.10;;;;;;;33.43;18.94;99417.72;5076874;28;41514;-82
2022/06/02 11:53:43;;;;;;;1.80;1.17;;;;;;;33.48;18.97;99412.38;5093502;28;38921;-84
2022/06/02 11:56:19;;;;;;;0.80;0.80;;;;;;;33.83;19.41;99402.41;5093401;28;41380;-82
2022/06/02 11:59:10;;;;;;;0.80;0.80;;;;;;;34.16;20.52;99379.09;5076430;28;44644;-84
2022/06/02 12:01:53;;;;;;;1.13;1.07;;;;;;;35.00;19.78;99399.88;5091453;28;42485;-79
2022/06/02 12:04:46;;;;;;;0.93;0.93;;;;;;;35.60;18.31;99405.91;5076604;28;40539;-79
2022/06/02 12:07:32;;;;;;;1.77;1.67;;;;;;;35.81;17.29;99420.97;5075743;28;41589;-82
2022/06/02 12:10:28;;;;;;;1.17;1.00;;;;;;;36.26;17.28;99420.16;5093409;28;42695;-83
2022/06/02 12:13:21;;;;;;;1.23;1.13;;;;;;;37.27;18.20;99399.69;5076010;28;41291;-82
2022/06/02 12:16:12;;;;;;;1.20;1.10;;;;;;;38.02;17.50;99400.88;5090043;28;40829;-82
2022/06/02 12:18:56;;;;;;;1.10;1.00;;;;;;;38.56;16.74;99409.19;5092613;28;40732;-80
2022/06/02 12:21:40;;;;;;;1.20;1.13;;;;;;;39.04;16.09;99403.44;5091231;28;42952;-77
2022/06/02 12:24:32;;;;;;;1.20;1.00;;;;;;;39.52;15.76;99406.19;5075858;28;43644;-82
2022/06/02 12:27:24;;;;;;;1.03;0.93;;;;;;;39.70;15.07;99405.69;5092735;28;38553;-82
2022/06/02 12:30:14;;;;;;;1.00;1.00;;;;;;;39.79;15.41;99415.16;5093156;28;40778;-79
2022/06/02 12:33:07;;;;;;;1.37;1.03;;;;;;;39.75;15.37;99419.56;5093260;28;43661;-83
2022/06/02 12:35:51;;;;;;;2.07;1.37;;;;;;;39.45;15.00;99412.81;5092016;28;43740;-77
2022/06/02 12:38:47;;;;;;;0.93;0.90;;;;;;;39.19;15.45;99408.25;5093034;28;39984;-76
2022/06/02 12:41:27;;;;;;;1.53;1.10;;;;;;;38.92;16.33;99405.56;5091790;28;41622;-86
2022/06/02 12:44:33;;;;;;;0.83;0.83;;;;;;;38.40;16.68;99408.19;5092761;28;43901;-82
2022/06/02 12:47:36;;;;;;;0.90;0.90;;;;;;;37.57;17.00;99398.41;5090702;28;42356;-82
2022/06/02 12:50:48;;;;;;;0.80;0.80;;;;;;;37.09;16.83;99402.75;5092582;28;40899;-82
2022/06/02 12:53:39;;;;;;;1.20;1.10;;;;;;;36.59;17.59;99394.50;5075575;28;40631;-81
2022/06/02 12:56:49;;;;;;;1.00;0.97;;;;;;;36.02;17.54;99394.59;5075114;28;44598;-77
2022/06/02 12:59:42;;;;;;;0.70;0.70;;;;;;;35.42;18.90;99366.66;5093559;28;42037;-78
2022/06/02 13:02:20;;;;;;;1.30;0.90;;;;;;;35.18;18.08;99380.47;5076077;28;39931;-77
2022/06/02 13:05:28;;;;;;;1.03;1.00;;;;;;;34.78;18.14;99379.56;5102028;28;40491;-76
2022/06/02 13:08:33;;;;;;;0.83;0.83;;;;;;;34.14;18.86;99375.72;5100625;28;44408;-76